Terminal Aerodrome Forecast
Issued by NWS

Home | Current Version | Previous Version | Text Only | Print | Product List | Glossary On
Versions: 1 2 3 4 5 6 7 8 9 10 11 12 13 14 15 16 17 18 19 20 21 22 23 24
000
FTUS43 KLSX 221130
TAFUIN
TAF
KUIN 221130Z 2212/2312 05010KT 3SM -FZRA BR OVC008
     FM221700 07008KT P6SM OVC008
     FM230000 09005KT P6SM OVC005
     FM230300 10007KT 5SM -SHRA BR OVC005
     FM230800 16005KT P6SM OVC005=

USA.gov is the U.S. government's official web portal to all federal, state and local government web resources and services.